Pagrindinis puslapis
METAR-TAF:

METAR-TAF

Oro uostai :

Sharurah, Saudo Arabija

platuma: 17-28N, ilguma: 047-07E, Aukštis: 720 m

Dabartinis oras

Ataskaita buvo paskelbta 1 valandą ir 6 minutes, ne 10:00 UTC
Ramus vėjas
Temperatūra 30°C
Drėgmė 25%
Slėgis 1014 hPa
Matomumas 10 km arba daugiau
nėra debesų žemiau 1500 m ir nėra kamuolinių lietaus debesų

METAR: OESH 071000Z 00000KT CAVOK 30/08 Q1014 NOSIG

Laikas: 14:06 (11:06 UTC)

Prognozė

Ataskaita buvo paskelbta 12 valandos ir 6 minutes, ne 23:00 UTC
Prognozė galioja nuo 07 metu 00 UTC su 08 metu 06 UTC
Vėjas 6 kt iš Pietų
Matomumas: 7000 m
Mažai debesys ne aukštis 3000 ft
Tapsmas
nuo 07 metu 10 UTC su 07 metu 12 UTC
Vėjas 10 kt iš Rytų
Matomumas 10 km arba daugiau
nėra debesų žemiau 1500 m ir nėra kamuolinių lietaus debesų
Tapsmas
nuo 08 metu 00 UTC su 08 metu 02 UTC
Vėjas 5 kt iš Pietryčių
Matomumas: 7000 m

TAF: OESH 062300Z 0700/0806 18006KT 7000 FEW030 BECMG 0710/0712 09010KT CAVOK BECMG 0800/0802 14005KT 7000 NSC

Orai ataskaitas ir orų prognozės (METAR, TAF).

turimą stotys yra geltonos ir raudonos taškus žemėlapyje.

Perkelti pele per norėdami pamatyti stoties vardą.

Tada spustelėkite, norėdami matyti oro stebėjimo ir prognozės.

Norėdami pakeisti žemėlapį: spustelėkite ant žalios mygtukų su juodo kryžiaus žemyn,; žalią mygtuką su brūkšneliu, jei norite nutolinti; arba žalių rodyklių gretimoms žemėlapius.


METAR-TAF: